Parks, Nebraska
Current Conditions -  °F | °C
As of 7:35 PM on Sunday 23 Nov 2014 (Local Time) from KSYF Reporting Station
Clear Clear  
Wind Chill: 24°   Ceiling: Unl
Heat Index: 33°   Visibility: 10mi
Dew Point:   Wind: 12mph
Humidity: 33%   Direction: 310°NW
Pressure: 29.82"   Gusts: NA
Location:  40.04°N, 101.73°W
Report Text: KSYF 240235Z AUTO 31010KT 10SM CLR 01/M14 A2982 RMK AO2 T00061140
Loading
Personal Weather Stations






























Interactive Weather Map New forecast layout! Learn more

10-Day Weather Forecast

Advertisements
Track Severe Weather on mobile